This is the latest recevied weather packets stored in our database for station/object E22ZMG-3. If no packets are shown the sender has not sent any weather packets the latest 10 day(s).
| Time | Temp. | Humidity | Pressure | Rain* | Wind** | Luminosity | Snow |
|---|---|---|---|---|---|---|---|
| 1777837328 | 31.11° C | 55% | 975 hPa | - | - | 0 W/m² | - |
| 1777836703 | 31.11° C | 55% | 975 hPa | - | - | 0 W/m² | - |
| 1777836076 | 31.67° C | 53% | 975 hPa | - | - | 0 W/m² | - |
| 1777835451 | 31.11° C | 55% | 975 hPa | - | - | 0 W/m² | - |
| 1777834826 | 31.11° C | 55% | 976 hPa | - | - | 0 W/m² | - |
| 1777834405 | 32.22° C | 52% | 975 hPa | - | - | 0 W/m² | - |
| 1777833781 | 31.67° C | 54% | 975 hPa | - | - | 0 W/m² | - |
| 1777833156 | 32.22° C | 53% | 976 hPa | - | - | 0 W/m² | - |
| 1777832530 | 31.67° C | 55% | 976 hPa | - | - | 0 W/m² | - |
| 1777831905 | 32.22° C | 54% | 976 hPa | - | - | 0 W/m² | - |
| 1777831280 | 31.67° C | 53% | 976 hPa | - | - | 0 W/m² | - |
| 1777830654 | 32.78° C | 52% | 976 hPa | - | - | 0 W/m² | - |
| 1777830029 | 31.67° C | 54% | 976 hPa | - | - | 0 W/m² | - |
| 1777829403 | 32.78° C | 51% | 976 hPa | - | - | 0 W/m² | - |
| 1777828778 | 32.78° C | 51% | 976 hPa | - | - | 0 W/m² | - |
| 1777828152 | 32.78° C | 52% | 976 hPa | - | - | 0 W/m² | - |
| 1777827527 | 33.89° C | 49% | 976 hPa | - | - | 0 W/m² | - |
| 1777826903 | 32.78° C | 51% | 976 hPa | - | - | 0 W/m² | - |
| 1777826277 | 32.78° C | 50% | 976 hPa | - | - | 0 W/m² | - |
| 1777825651 | 32.78° C | 51% | 976 hPa | - | - | 0 W/m² | - |
| 1777825027 | 33.89° C | 48% | 976 hPa | - | - | 0 W/m² | - |
| 1777824402 | 33.33° C | 48% | 976 hPa | - | - | 0 W/m² | - |
| 1777823778 | 33.33° C | 49% | 976 hPa | - | - | 0 W/m² | - |
| 1777823153 | 33.89° C | 48% | 976 hPa | - | - | 0 W/m² | - |
| 1777822528 | 33.89° C | 47% | 976 hPa | - | - | 0 W/m² | - |
* Rain since midnight (hover to see other rain measurements)
** Current wind speed in m/s (hover to see current wind gust speed)